sensor_id;sensor_type;location;lat;lon;timestamp;P1;durP1;ratioP1;P2;durP2;ratioP2
13832;SDS011;6987;19.472;-99.276;2023-06-22T00:00:42;9.18;;;4.50;;
13832;SDS011;6987;19.472;-99.276;2023-06-22T00:03:11;4.28;;;3.90;;
13832;SDS011;6987;19.472;-99.276;2023-06-22T00:05:41;4.93;;;4.00;;
13832;SDS011;6987;19.472;-99.276;2023-06-22T00:08:10;5.65;;;3.97;;
13832;SDS011;6987;19.472;-99.276;2023-06-22T00:10:40;7.32;;;4.38;;
13832;SDS011;6987;19.472;-99.276;2023-06-22T00:13:10;13.10;;;4.35;;
13832;SDS011;6987;19.472;-99.276;2023-06-22T00:15:40;3.90;;;3.63;;
13832;SDS011;6987;19.472;-99.276;2023-06-22T00:18:10;7.43;;;3.70;;
13832;SDS011;6987;19.472;-99.276;2023-06-22T00:20:41;6.00;;;4.13;;
13832;SDS011;6987;19.472;-99.276;2023-06-22T00:23:11;6.82;;;4.18;;
13832;SDS011;6987;19.472;-99.276;2023-06-22T00:25:41;7.28;;;4.25;;
13832;SDS011;6987;19.472;-99.276;2023-06-22T00:28:11;7.07;;;4.35;;
13832;SDS011;6987;19.472;-99.276;2023-06-22T00:30:40;5.38;;;4.03;;
13832;SDS011;6987;19.472;-99.276;2023-06-22T00:33:11;4.47;;;4.10;;
13832;SDS011;6987;19.472;-99.276;2023-06-22T00:35:43;4.97;;;4.03;;
13832;SDS011;6987;19.472;-99.276;2023-06-22T00:38:12;3.88;;;3.58;;
13832;SDS011;6987;19.472;-99.276;2023-06-22T00:40:41;4.53;;;4.15;;
13832;SDS011;6987;19.472;-99.276;2023-06-22T00:43:10;8.32;;;4.30;;
13832;SDS011;6987;19.472;-99.276;2023-06-22T00:45:39;10.50;;;4.07;;
13832;SDS011;6987;19.472;-99.276;2023-06-22T00:48:08;5.63;;;4.07;;
13832;SDS011;6987;19.472;-99.276;2023-06-22T00:50:37;4.00;;;3.63;;
13832;SDS011;6987;19.472;-99.276;2023-06-22T00:53:08;4.03;;;3.67;;
13832;SDS011;6987;19.472;-99.276;2023-06-22T00:55:37;4.30;;;4.00;;
13832;SDS011;6987;19.472;-99.276;2023-06-22T00:58:09;10.05;;;4.60;;
13832;SDS011;6987;19.472;-99.276;2023-06-22T01:00:38;3.72;;;3.30;;
13832;SDS011;6987;19.472;-99.276;2023-06-22T01:03:07;18.92;;;5.07;;
13832;SDS011;6987;19.472;-99.276;2023-06-22T01:05:36;6.32;;;4.15;;
13832;SDS011;6987;19.472;-99.276;2023-06-22T01:08:08;8.05;;;4.32;;
13832;SDS011;6987;19.472;-99.276;2023-06-22T01:10:40;4.50;;;4.10;;
13832;SDS011;6987;19.472;-99.276;2023-06-22T01:13:18;4.88;;;4.43;;
13832;SDS011;6987;19.472;-99.276;2023-06-22T01:15:51;5.50;;;5.00;;
13832;SDS011;6987;19.472;-99.276;2023-06-22T01:18:22;6.15;;;4.50;;
13832;SDS011;6987;19.472;-99.276;2023-06-22T01:20:52;6.50;;;5.13;;
13832;SDS011;6987;19.472;-99.276;2023-06-22T01:23:26;8.88;;;5.63;;
13832;SDS011;6987;19.472;-99.276;2023-06-22T01:26:02;12.25;;;5.80;;
13832;SDS011;6987;19.472;-99.276;2023-06-22T01:31:22;6.28;;;5.25;;
13832;SDS011;6987;19.472;-99.276;2023-06-22T01:33:52;7.38;;;5.57;;
13832;SDS011;6987;19.472;-99.276;2023-06-22T01:36:22;9.40;;;5.65;;
13832;SDS011;6987;19.472;-99.276;2023-06-22T01:38:52;7.13;;;5.18;;
13832;SDS011;6987;19.472;-99.276;2023-06-22T01:41:21;7.45;;;5.43;;
13832;SDS011;6987;19.472;-99.276;2023-06-22T01:43:50;7.63;;;6.00;;
13832;SDS011;6987;19.472;-99.276;2023-06-22T01:46:22;7.20;;;5.75;;
13832;SDS011;6987;19.472;-99.276;2023-06-22T01:48:51;6.03;;;5.43;;
13832;SDS011;6987;19.472;-99.276;2023-06-22T01:51:21;11.20;;;6.13;;
13832;SDS011;6987;19.472;-99.276;2023-06-22T01:53:50;9.60;;;5.40;;
13832;SDS011;6987;19.472;-99.276;2023-06-22T01:56:19;10.02;;;5.25;;
13832;SDS011;6987;19.472;-99.276;2023-06-22T01:58:50;6.40;;;5.22;;
13832;SDS011;6987;19.472;-99.276;2023-06-22T02:01:23;6.50;;;5.70;;
13832;SDS011;6987;19.472;-99.276;2023-06-22T02:03:55;6.30;;;5.70;;
13832;SDS011;6987;19.472;-99.276;2023-06-22T02:06:27;6.78;;;5.97;;
13832;SDS011;6987;19.472;-99.276;2023-06-22T02:09:01;5.80;;;5.30;;
13832;SDS011;6987;19.472;-99.276;2023-06-22T02:11:30;7.53;;;5.88;;
13832;SDS011;6987;19.472;-99.276;2023-06-22T02:14:00;10.20;;;7.05;;
13832;SDS011;6987;19.472;-99.276;2023-06-22T02:16:32;7.95;;;6.38;;
13832;SDS011;6987;19.472;-99.276;2023-06-22T02:19:04;8.90;;;6.15;;
13832;SDS011;6987;19.472;-99.276;2023-06-22T02:21:32;9.85;;;6.25;;
13832;SDS011;6987;19.472;-99.276;2023-06-22T02:24:02;8.18;;;6.18;;
13832;SDS011;6987;19.472;-99.276;2023-06-22T02:26:31;6.88;;;5.60;;
13832;SDS011;6987;19.472;-99.276;2023-06-22T02:29:00;7.95;;;6.25;;
13832;SDS011;6987;19.472;-99.276;2023-06-22T02:31:29;8.00;;;5.43;;
13832;SDS011;6987;19.472;-99.276;2023-06-22T02:34:00;7.22;;;5.88;;
13832;SDS011;6987;19.472;-99.276;2023-06-22T02:36:29;6.55;;;5.60;;
13832;SDS011;6987;19.472;-99.276;2023-06-22T02:38:58;7.18;;;5.60;;
13832;SDS011;6987;19.472;-99.276;2023-06-22T02:41:29;5.65;;;4.85;;
13832;SDS011;6987;19.472;-99.276;2023-06-22T02:43:58;8.25;;;5.65;;
13832;SDS011;6987;19.472;-99.276;2023-06-22T02:46:27;11.75;;;5.78;;
13832;SDS011;6987;19.472;-99.276;2023-06-22T02:48:56;5.70;;;5.13;;
13832;SDS011;6987;19.472;-99.276;2023-06-22T02:51:27;7.35;;;5.70;;
13832;SDS011;6987;19.472;-99.276;2023-06-22T02:53:57;5.05;;;4.65;;
13832;SDS011;6987;19.472;-99.276;2023-06-22T02:56:26;5.15;;;4.70;;
13832;SDS011;6987;19.472;-99.276;2023-06-22T02:58:56;7.60;;;5.47;;
13832;SDS011;6987;19.472;-99.276;2023-06-22T03:01:27;5.82;;;5.22;;
13832;SDS011;6987;19.472;-99.276;2023-06-22T03:03:56;6.72;;;5.68;;
13832;SDS011;6987;19.472;-99.276;2023-06-22T03:06:27;7.15;;;5.63;;
13832;SDS011;6987;19.472;-99.276;2023-06-22T03:08:58;7.97;;;5.65;;
13832;SDS011;6987;19.472;-99.276;2023-06-22T03:11:29;7.75;;;5.72;;
13832;SDS011;6987;19.472;-99.276;2023-06-22T03:13:58;7.88;;;5.78;;
13832;SDS011;6987;19.472;-99.276;2023-06-22T03:16:27;6.45;;;5.85;;
13832;SDS011;6987;19.472;-99.276;2023-06-22T03:18:56;7.95;;;5.88;;
13832;SDS011;6987;19.472;-99.276;2023-06-22T03:21:27;9.57;;;5.60;;
13832;SDS011;6987;19.472;-99.276;2023-06-22T03:23:57;6.82;;;6.15;;
13832;SDS011;6987;19.472;-99.276;2023-06-22T03:26:27;7.60;;;5.95;;
13832;SDS011;6987;19.472;-99.276;2023-06-22T03:28:56;7.13;;;5.88;;
13832;SDS011;6987;19.472;-99.276;2023-06-22T03:31:25;7.93;;;5.55;;
13832;SDS011;6987;19.472;-99.276;2023-06-22T03:33:54;7.03;;;5.43;;
13832;SDS011;6987;19.472;-99.276;2023-06-22T03:36:23;7.97;;;5.57;;
13832;SDS011;6987;19.472;-99.276;2023-06-22T03:38:54;5.85;;;5.28;;
13832;SDS011;6987;19.472;-99.276;2023-06-22T03:41:23;9.77;;;5.38;;
13832;SDS011;6987;19.472;-99.276;2023-06-22T03:43:53;8.45;;;5.50;;
13832;SDS011;6987;19.472;-99.276;2023-06-22T03:46:22;5.85;;;5.13;;
13832;SDS011;6987;19.472;-99.276;2023-06-22T03:48:51;7.15;;;5.32;;
13832;SDS011;6987;19.472;-99.276;2023-06-22T03:51:20;7.22;;;5.50;;
13832;SDS011;6987;19.472;-99.276;2023-06-22T03:53:50;6.10;;;5.22;;
13832;SDS011;6987;19.472;-99.276;2023-06-22T03:56:21;8.18;;;5.40;;
13832;SDS011;6987;19.472;-99.276;2023-06-22T03:58:49;5.60;;;5.10;;
13832;SDS011;6987;19.472;-99.276;2023-06-22T04:01:19;6.97;;;5.18;;
13832;SDS011;6987;19.472;-99.276;2023-06-22T04:03:48;8.05;;;5.53;;
13832;SDS011;6987;19.472;-99.276;2023-06-22T04:06:17;6.40;;;5.40;;
13832;SDS011;6987;19.472;-99.276;2023-06-22T04:08:46;5.50;;;5.00;;
13832;SDS011;6987;19.472;-99.276;2023-06-22T04:11:17;7.18;;;5.53;;
13832;SDS011;6987;19.472;-99.276;2023-06-22T04:13:47;8.25;;;5.65;;
13832;SDS011;6987;19.472;-99.276;2023-06-22T04:16:17;8.73;;;5.53;;
13832;SDS011;6987;19.472;-99.276;2023-06-22T04:18:45;5.45;;;4.60;;
13832;SDS011;6987;19.472;-99.276;2023-06-22T04:21:15;5.65;;;5.15;;
13832;SDS011;6987;19.472;-99.276;2023-06-22T04:23:45;6.63;;;5.55;;
13832;SDS011;6987;19.472;-99.276;2023-06-22T04:26:14;5.63;;;5.13;;
13832;SDS011;6987;19.472;-99.276;2023-06-22T04:28:48;8.90;;;5.28;;
13832;SDS011;6987;19.472;-99.276;2023-06-22T04:31:21;10.55;;;5.70;;
13832;SDS011;6987;19.472;-99.276;2023-06-22T04:33:57;9.00;;;5.95;;
13832;SDS011;6987;19.472;-99.276;2023-06-22T04:36:32;6.18;;;5.22;;
13832;SDS011;6987;19.472;-99.276;2023-06-22T04:39:07;8.68;;;5.63;;
13832;SDS011;6987;19.472;-99.276;2023-06-22T04:41:37;6.13;;;5.53;;
13832;SDS011;6987;19.472;-99.276;2023-06-22T04:44:14;11.02;;;5.30;;
13832;SDS011;6987;19.472;-99.276;2023-06-22T04:46:49;10.02;;;5.47;;
13832;SDS011;6987;19.472;-99.276;2023-06-22T04:49:20;6.82;;;5.85;;
13832;SDS011;6987;19.472;-99.276;2023-06-22T04:51:58;5.97;;;5.38;;
13832;SDS011;6987;19.472;-99.276;2023-06-22T04:54:28;12.93;;;6.80;;
13832;SDS011;6987;19.472;-99.276;2023-06-22T04:56:58;6.43;;;5.82;;
13832;SDS011;6987;19.472;-99.276;2023-06-22T04:59:30;7.35;;;5.72;;
13832;SDS011;6987;19.472;-99.276;2023-06-22T05:02:00;10.05;;;5.65;;
13832;SDS011;6987;19.472;-99.276;2023-06-22T05:04:30;6.60;;;5.97;;
13832;SDS011;6987;19.472;-99.276;2023-06-22T05:06:58;12.20;;;6.18;;
13832;SDS011;6987;19.472;-99.276;2023-06-22T05:09:27;8.02;;;5.85;;
13832;SDS011;6987;19.472;-99.276;2023-06-22T05:11:56;6.38;;;5.75;;
13832;SDS011;6987;19.472;-99.276;2023-06-22T05:14:25;11.15;;;6.53;;
13832;SDS011;6987;19.472;-99.276;2023-06-22T05:16:56;8.07;;;6.85;;
13832;SDS011;6987;19.472;-99.276;2023-06-22T05:19:29;7.63;;;6.85;;
13832;SDS011;6987;19.472;-99.276;2023-06-22T05:21:59;7.80;;;6.22;;
13832;SDS011;6987;19.472;-99.276;2023-06-22T05:24:28;8.38;;;6.10;;
13832;SDS011;6987;19.472;-99.276;2023-06-22T05:26:57;6.70;;;6.03;;
13832;SDS011;6987;19.472;-99.276;2023-06-22T05:29:26;9.50;;;6.20;;
13832;SDS011;6987;19.472;-99.276;2023-06-22T05:31:57;7.60;;;5.85;;
13832;SDS011;6987;19.472;-99.276;2023-06-22T05:34:26;6.53;;;5.85;;
13832;SDS011;6987;19.472;-99.276;2023-06-22T05:36:55;6.82;;;5.53;;
13832;SDS011;6987;19.472;-99.276;2023-06-22T05:39:25;7.57;;;6.25;;
13832;SDS011;6987;19.472;-99.276;2023-06-22T05:41:54;6.95;;;5.85;;
13832;SDS011;6987;19.472;-99.276;2023-06-22T05:44:23;6.75;;;5.88;;
13832;SDS011;6987;19.472;-99.276;2023-06-22T05:46:52;6.10;;;5.60;;
13832;SDS011;6987;19.472;-99.276;2023-06-22T05:49:23;6.95;;;5.97;;
13832;SDS011;6987;19.472;-99.276;2023-06-22T05:51:55;7.80;;;5.72;;
13832;SDS011;6987;19.472;-99.276;2023-06-22T05:54:24;9.50;;;5.90;;
13832;SDS011;6987;19.472;-99.276;2023-06-22T05:56:53;7.43;;;6.10;;
13832;SDS011;6987;19.472;-99.276;2023-06-22T05:59:21;8.88;;;5.70;;
13832;SDS011;6987;19.472;-99.276;2023-06-22T06:01:51;6.60;;;6.00;;
13832;SDS011;6987;19.472;-99.276;2023-06-22T06:04:20;6.85;;;5.80;;
13832;SDS011;6987;19.472;-99.276;2023-06-22T06:06:51;7.03;;;6.35;;
13832;SDS011;6987;19.472;-99.276;2023-06-22T06:09:20;7.53;;;6.32;;
13832;SDS011;6987;19.472;-99.276;2023-06-22T06:11:49;15.40;;;6.55;;
13832;SDS011;6987;19.472;-99.276;2023-06-22T06:14:18;8.60;;;6.20;;
13832;SDS011;6987;19.472;-99.276;2023-06-22T06:16:48;8.93;;;6.93;;
13832;SDS011;6987;19.472;-99.276;2023-06-22T06:19:17;8.82;;;6.18;;
13832;SDS011;6987;19.472;-99.276;2023-06-22T06:21:46;8.93;;;6.78;;
13832;SDS011;6987;19.472;-99.276;2023-06-22T06:24:17;6.63;;;6.13;;
13832;SDS011;6987;19.472;-99.276;2023-06-22T06:26:46;6.82;;;6.20;;
13832;SDS011;6987;19.472;-99.276;2023-06-22T06:29:16;11.88;;;6.78;;
13832;SDS011;6987;19.472;-99.276;2023-06-22T06:31:46;14.50;;;6.95;;
13832;SDS011;6987;19.472;-99.276;2023-06-22T06:34:15;12.82;;;6.82;;
13832;SDS011;6987;19.472;-99.276;2023-06-22T06:36:44;7.63;;;6.45;;
13832;SDS011;6987;19.472;-99.276;2023-06-22T06:39:13;17.95;;;7.82;;
13832;SDS011;6987;19.472;-99.276;2023-06-22T06:41:44;15.15;;;7.15;;
13832;SDS011;6987;19.472;-99.276;2023-06-22T06:44:13;11.90;;;6.47;;
13832;SDS011;6987;19.472;-99.276;2023-06-22T06:46:42;11.05;;;6.65;;
13832;SDS011;6987;19.472;-99.276;2023-06-22T06:49:11;6.88;;;6.20;;
13832;SDS011;6987;19.472;-99.276;2023-06-22T06:51:40;11.32;;;6.35;;
13832;SDS011;6987;19.472;-99.276;2023-06-22T06:54:09;7.05;;;6.28;;
13832;SDS011;6987;19.472;-99.276;2023-06-22T06:56:38;6.88;;;6.25;;
13832;SDS011;6987;19.472;-99.276;2023-06-22T06:59:15;8.50;;;6.75;;
13832;SDS011;6987;19.472;-99.276;2023-06-22T07:01:44;10.15;;;6.20;;
13832;SDS011;6987;19.472;-99.276;2023-06-22T07:04:14;6.90;;;6.20;;
13832;SDS011;6987;19.472;-99.276;2023-06-22T07:06:43;6.97;;;6.20;;
13832;SDS011;6987;19.472;-99.276;2023-06-22T07:09:12;9.32;;;5.72;;
13832;SDS011;6987;19.472;-99.276;2023-06-22T07:11:41;9.88;;;6.43;;
13832;SDS011;6987;19.472;-99.276;2023-06-22T07:14:10;8.85;;;6.85;;
13832;SDS011;6987;19.472;-99.276;2023-06-22T07:16:40;9.35;;;5.78;;
13832;SDS011;6987;19.472;-99.276;2023-06-22T07:19:10;7.45;;;6.50;;
13832;SDS011;6987;19.472;-99.276;2023-06-22T07:21:40;7.22;;;6.63;;
13832;SDS011;6987;19.472;-99.276;2023-06-22T07:24:09;8.20;;;6.75;;
13832;SDS011;6987;19.472;-99.276;2023-06-22T07:26:39;8.25;;;7.32;;
13832;SDS011;6987;19.472;-99.276;2023-06-22T07:29:11;9.25;;;7.20;;
13832;SDS011;6987;19.472;-99.276;2023-06-22T07:31:42;8.70;;;6.95;;
13832;SDS011;6987;19.472;-99.276;2023-06-22T07:34:11;7.90;;;7.10;;
13832;SDS011;6987;19.472;-99.276;2023-06-22T07:36:40;8.10;;;7.32;;
13832;SDS011;6987;19.472;-99.276;2023-06-22T07:39:10;7.32;;;6.68;;
13832;SDS011;6987;19.472;-99.276;2023-06-22T07:41:40;7.07;;;6.55;;
13832;SDS011;6987;19.472;-99.276;2023-06-22T07:44:09;7.00;;;6.38;;
13832;SDS011;6987;19.472;-99.276;2023-06-22T07:46:38;7.35;;;6.60;;
13832;SDS011;6987;19.472;-99.276;2023-06-22T07:49:09;8.02;;;6.97;;
13832;SDS011;6987;19.472;-99.276;2023-06-22T07:51:38;8.10;;;7.35;;
13832;SDS011;6987;19.472;-99.276;2023-06-22T07:54:08;8.18;;;6.78;;
13832;SDS011;6987;19.472;-99.276;2023-06-22T07:56:37;10.35;;;7.13;;
13832;SDS011;6987;19.472;-99.276;2023-06-22T07:59:06;7.38;;;6.68;;
13832;SDS011;6987;19.472;-99.276;2023-06-22T08:01:35;11.13;;;6.47;;
13832;SDS011;6987;19.472;-99.276;2023-06-22T08:04:04;6.75;;;6.05;;
13832;SDS011;6987;19.472;-99.276;2023-06-22T08:06:36;6.70;;;6.20;;
13832;SDS011;6987;19.472;-99.276;2023-06-22T08:09:05;7.50;;;6.65;;
13832;SDS011;6987;19.472;-99.276;2023-06-22T08:11:34;6.63;;;5.57;;
13832;SDS011;6987;19.472;-99.276;2023-06-22T08:14:03;6.53;;;5.93;;
13832;SDS011;6987;19.472;-99.276;2023-06-22T08:16:32;12.07;;;6.80;;
13832;SDS011;6987;19.472;-99.276;2023-06-22T08:19:00;6.78;;;6.18;;
13832;SDS011;6987;19.472;-99.276;2023-06-22T08:21:30;6.25;;;5.65;;
13832;SDS011;6987;19.472;-99.276;2023-06-22T08:24:01;6.30;;;5.80;;
13832;SDS011;6987;19.472;-99.276;2023-06-22T08:26:29;7.05;;;5.57;;
13832;SDS011;6987;19.472;-99.276;2023-06-22T08:29:01;7.72;;;5.22;;
13832;SDS011;6987;19.472;-99.276;2023-06-22T08:31:31;5.93;;;4.97;;
13832;SDS011;6987;19.472;-99.276;2023-06-22T08:34:00;5.53;;;5.03;;
13832;SDS011;6987;19.472;-99.276;2023-06-22T08:36:29;5.93;;;5.32;;
13832;SDS011;6987;19.472;-99.276;2023-06-22T08:39:07;5.57;;;5.18;;
13832;SDS011;6987;19.472;-99.276;2023-06-22T08:41:36;6.60;;;5.13;;
13832;SDS011;6987;19.472;-99.276;2023-06-22T08:44:05;5.50;;;5.00;;
13832;SDS011;6987;19.472;-99.276;2023-06-22T08:46:35;5.65;;;5.07;;
13832;SDS011;6987;19.472;-99.276;2023-06-22T08:49:04;5.50;;;4.65;;
13832;SDS011;6987;19.472;-99.276;2023-06-22T08:51:33;5.90;;;5.30;;
13832;SDS011;6987;19.472;-99.276;2023-06-22T08:54:05;5.30;;;4.88;;
13832;SDS011;6987;19.472;-99.276;2023-06-22T08:56:34;5.18;;;4.75;;
13832;SDS011;6987;19.472;-99.276;2023-06-22T08:59:03;5.03;;;4.50;;
13832;SDS011;6987;19.472;-99.276;2023-06-22T09:04:01;5.20;;;4.70;;
13832;SDS011;6987;19.472;-99.276;2023-06-22T09:06:31;7.70;;;5.25;;
13832;SDS011;6987;19.472;-99.276;2023-06-22T09:09:01;5.53;;;4.38;;
13832;SDS011;6987;19.472;-99.276;2023-06-22T09:11:33;6.25;;;4.25;;
13832;SDS011;6987;19.472;-99.276;2023-06-22T09:14:02;7.80;;;4.75;;
13832;SDS011;6987;19.472;-99.276;2023-06-22T09:16:32;5.13;;;4.63;;
13832;SDS011;6987;19.472;-99.276;2023-06-22T09:19:01;5.18;;;4.68;;
13832;SDS011;6987;19.472;-99.276;2023-06-22T09:21:31;4.45;;;4.22;;
13832;SDS011;6987;19.472;-99.276;2023-06-22T09:24:00;4.90;;;4.50;;
13832;SDS011;6987;19.472;-99.276;2023-06-22T09:26:30;5.40;;;4.85;;
13832;SDS011;6987;19.472;-99.276;2023-06-22T09:29:02;5.32;;;4.82;;
13832;SDS011;6987;19.472;-99.276;2023-06-22T09:31:33;4.97;;;4.63;;
13832;SDS011;6987;19.472;-99.276;2023-06-22T09:34:02;7.55;;;4.90;;
13832;SDS011;6987;19.472;-99.276;2023-06-22T09:36:30;5.05;;;4.65;;
13832;SDS011;6987;19.472;-99.276;2023-06-22T09:38:59;5.20;;;4.90;;
13832;SDS011;6987;19.472;-99.276;2023-06-22T09:41:32;6.32;;;4.75;;
13832;SDS011;6987;19.472;-99.276;2023-06-22T09:44:02;5.35;;;4.95;;
13832;SDS011;6987;19.472;-99.276;2023-06-22T09:46:32;6.15;;;5.55;;
13832;SDS011;6987;19.472;-99.276;2023-06-22T09:49:01;7.25;;;5.15;;
13832;SDS011;6987;19.472;-99.276;2023-06-22T09:51:30;5.28;;;4.78;;
13832;SDS011;6987;19.472;-99.276;2023-06-22T09:53:59;5.13;;;4.72;;
13832;SDS011;6987;19.472;-99.276;2023-06-22T09:56:29;5.57;;;4.75;;
13832;SDS011;6987;19.472;-99.276;2023-06-22T09:58:58;5.40;;;4.90;;
13832;SDS011;6987;19.472;-99.276;2023-06-22T10:01:28;5.57;;;5.13;;
13832;SDS011;6987;19.472;-99.276;2023-06-22T10:03:57;5.85;;;5.28;;
13832;SDS011;6987;19.472;-99.276;2023-06-22T10:06:26;5.40;;;5.00;;
13832;SDS011;6987;19.472;-99.276;2023-06-22T10:08:55;5.38;;;4.85;;
13832;SDS011;6987;19.472;-99.276;2023-06-22T10:11:24;5.32;;;4.93;;
13832;SDS011;6987;19.472;-99.276;2023-06-22T10:13:55;5.03;;;4.63;;
13832;SDS011;6987;19.472;-99.276;2023-06-22T10:16:32;5.03;;;4.55;;
13832;SDS011;6987;19.472;-99.276;2023-06-22T10:19:01;8.65;;;5.00;;
13832;SDS011;6987;19.472;-99.276;2023-06-22T10:21:30;5.18;;;4.75;;
13832;SDS011;6987;19.472;-99.276;2023-06-22T10:23:59;5.68;;;5.13;;
13832;SDS011;6987;19.472;-99.276;2023-06-22T10:26:31;6.38;;;4.80;;
13832;SDS011;6987;19.472;-99.276;2023-06-22T10:29:01;5.72;;;5.22;;
13832;SDS011;6987;19.472;-99.276;2023-06-22T10:31:32;5.35;;;4.60;;
13832;SDS011;6987;19.472;-99.276;2023-06-22T10:34:02;5.68;;;5.00;;
13832;SDS011;6987;19.472;-99.276;2023-06-22T10:36:31;7.40;;;5.30;;
13832;SDS011;6987;19.472;-99.276;2023-06-22T10:39:00;8.40;;;5.32;;
13832;SDS011;6987;19.472;-99.276;2023-06-22T10:41:29;5.35;;;4.85;;
13832;SDS011;6987;19.472;-99.276;2023-06-22T10:43:59;5.15;;;4.75;;
13832;SDS011;6987;19.472;-99.276;2023-06-22T10:46:28;5.20;;;4.70;;
13832;SDS011;6987;19.472;-99.276;2023-06-22T10:48:59;5.43;;;4.93;;
13832;SDS011;6987;19.472;-99.276;2023-06-22T10:51:28;5.25;;;4.55;;
13832;SDS011;6987;19.472;-99.276;2023-06-22T10:53:58;8.88;;;5.50;;
13832;SDS011;6987;19.472;-99.276;2023-06-22T10:56:27;6.47;;;5.07;;
13832;SDS011;6987;19.472;-99.276;2023-06-22T10:58:56;6.60;;;5.20;;
13832;SDS011;6987;19.472;-99.276;2023-06-22T11:01:25;8.27;;;4.45;;
13832;SDS011;6987;19.472;-99.276;2023-06-22T11:03:56;5.47;;;4.88;;
13832;SDS011;6987;19.472;-99.276;2023-06-22T11:06:28;5.47;;;4.93;;
13832;SDS011;6987;19.472;-99.276;2023-06-22T11:08:56;6.57;;;5.53;;
13832;SDS011;6987;19.472;-99.276;2023-06-22T11:11:26;5.93;;;4.88;;
13832;SDS011;6987;19.472;-99.276;2023-06-22T11:13:55;9.10;;;5.90;;
13832;SDS011;6987;19.472;-99.276;2023-06-22T11:16:24;5.60;;;5.10;;
13832;SDS011;6987;19.472;-99.276;2023-06-22T11:18:56;5.70;;;4.80;;
13832;SDS011;6987;19.472;-99.276;2023-06-22T11:21:25;5.57;;;5.00;;
13832;SDS011;6987;19.472;-99.276;2023-06-22T11:23:55;5.90;;;5.30;;
13832;SDS011;6987;19.472;-99.276;2023-06-22T11:26:25;5.60;;;5.15;;
13832;SDS011;6987;19.472;-99.276;2023-06-22T11:28:54;5.80;;;5.30;;
13832;SDS011;6987;19.472;-99.276;2023-06-22T11:31:24;5.72;;;5.22;;
13832;SDS011;6987;19.472;-99.276;2023-06-22T11:33:53;12.82;;;5.55;;
13832;SDS011;6987;19.472;-99.276;2023-06-22T11:36:22;10.20;;;5.20;;
13832;SDS011;6987;19.472;-99.276;2023-06-22T11:38:51;5.40;;;5.00;;
13832;SDS011;6987;19.472;-99.276;2023-06-22T11:41:21;7.57;;;4.75;;
13832;SDS011;6987;19.472;-99.276;2023-06-22T11:43:51;5.65;;;5.18;;
13832;SDS011;6987;19.472;-99.276;2023-06-22T11:46:19;9.98;;;5.05;;
13832;SDS011;6987;19.472;-99.276;2023-06-22T11:48:49;9.07;;;5.25;;
13832;SDS011;6987;19.472;-99.276;2023-06-22T11:51:18;5.50;;;5.07;;
13832;SDS011;6987;19.472;-99.276;2023-06-22T11:53:47;9.65;;;5.40;;
13832;SDS011;6987;19.472;-99.276;2023-06-22T11:56:16;5.47;;;5.05;;
13832;SDS011;6987;19.472;-99.276;2023-06-22T11:58:47;7.35;;;5.43;;
13832;SDS011;6987;19.472;-99.276;2023-06-22T12:01:16;6.40;;;5.00;;
13832;SDS011;6987;19.472;-99.276;2023-06-22T12:03:45;6.38;;;5.22;;
13832;SDS011;6987;19.472;-99.276;2023-06-22T12:06:14;6.68;;;5.35;;
13832;SDS011;6987;19.472;-99.276;2023-06-22T12:08:43;6.78;;;4.72;;
13832;SDS011;6987;19.472;-99.276;2023-06-22T12:11:12;5.55;;;4.97;;
13832;SDS011;6987;19.472;-99.276;2023-06-22T12:13:41;7.32;;;5.20;;
13832;SDS011;6987;19.472;-99.276;2023-06-22T12:16:12;6.60;;;4.95;;
13832;SDS011;6987;19.472;-99.276;2023-06-22T12:18:41;5.53;;;5.10;;
13832;SDS011;6987;19.472;-99.276;2023-06-22T12:21:11;8.82;;;5.53;;
13832;SDS011;6987;19.472;-99.276;2023-06-22T12:23:40;7.90;;;4.97;;
13832;SDS011;6987;19.472;-99.276;2023-06-22T12:26:08;9.70;;;5.20;;
13832;SDS011;6987;19.472;-99.276;2023-06-22T12:28:38;7.18;;;4.95;;
13832;SDS011;6987;19.472;-99.276;2023-06-22T12:31:06;7.63;;;5.10;;
13832;SDS011;6987;19.472;-99.276;2023-06-22T12:33:38;7.05;;;5.45;;
13832;SDS011;6987;19.472;-99.276;2023-06-22T12:36:07;6.10;;;5.50;;
13832;SDS011;6987;19.472;-99.276;2023-06-22T12:38:36;6.20;;;5.05;;
13832;SDS011;6987;19.472;-99.276;2023-06-22T12:41:05;7.78;;;5.28;;
13832;SDS011;6987;19.472;-99.276;2023-06-22T12:43:34;8.57;;;5.53;;
13832;SDS011;6987;19.472;-99.276;2023-06-22T12:46:03;8.32;;;5.75;;
13832;SDS011;6987;19.472;-99.276;2023-06-22T12:48:32;15.23;;;5.57;;
13832;SDS011;6987;19.472;-99.276;2023-06-22T12:51:09;8.10;;;5.32;;
13832;SDS011;6987;19.472;-99.276;2023-06-22T12:53:38;8.40;;;5.68;;
13832;SDS011;6987;19.472;-99.276;2023-06-22T12:56:07;6.40;;;5.22;;
13832;SDS011;6987;19.472;-99.276;2023-06-22T12:58:36;6.18;;;5.57;;
13832;SDS011;6987;19.472;-99.276;2023-06-22T13:01:05;5.13;;;4.43;;
13832;SDS011;6987;19.472;-99.276;2023-06-22T13:03:33;7.93;;;4.57;;
13832;SDS011;6987;19.472;-99.276;2023-06-22T13:06:03;5.78;;;5.07;;
13832;SDS011;6987;19.472;-99.276;2023-06-22T13:08:33;5.30;;;4.80;;
13832;SDS011;6987;19.472;-99.276;2023-06-22T13:11:03;5.45;;;5.05;;
13832;SDS011;6987;19.472;-99.276;2023-06-22T13:13:32;6.55;;;4.95;;
13832;SDS011;6987;19.472;-99.276;2023-06-22T13:16:02;5.07;;;4.55;;
13832;SDS011;6987;19.472;-99.276;2023-06-22T13:18:31;6.80;;;5.05;;
13832;SDS011;6987;19.472;-99.276;2023-06-22T13:21:01;5.28;;;4.78;;
13832;SDS011;6987;19.472;-99.276;2023-06-22T13:23:30;7.78;;;5.28;;
13832;SDS011;6987;19.472;-99.276;2023-06-22T13:26:01;5.90;;;5.40;;
13832;SDS011;6987;19.472;-99.276;2023-06-22T13:28:30;6.57;;;5.35;;
13832;SDS011;6987;19.472;-99.276;2023-06-22T13:31:00;6.82;;;5.95;;
13832;SDS011;6987;19.472;-99.276;2023-06-22T13:33:29;6.60;;;5.88;;
13832;SDS011;6987;19.472;-99.276;2023-06-22T13:35:57;10.80;;;8.50;;
13832;SDS011;6987;19.472;-99.276;2023-06-22T13:38:26;13.07;;;10.23;;
13832;SDS011;6987;19.472;-99.276;2023-06-22T13:40:56;11.55;;;9.30;;
13832;SDS011;6987;19.472;-99.276;2023-06-22T13:43:27;14.75;;;10.73;;
13832;SDS011;6987;19.472;-99.276;2023-06-22T13:45:56;11.32;;;9.88;;
13832;SDS011;6987;19.472;-99.276;2023-06-22T13:48:25;13.80;;;8.15;;
13832;SDS011;6987;19.472;-99.276;2023-06-22T13:50:55;12.57;;;7.53;;
13832;SDS011;6987;19.472;-99.276;2023-06-22T13:53:24;7.05;;;6.38;;
13832;SDS011;6987;19.472;-99.276;2023-06-22T13:55:56;6.70;;;5.50;;
13832;SDS011;6987;19.472;-99.276;2023-06-22T13:58:27;5.80;;;5.25;;
13832;SDS011;6987;19.472;-99.276;2023-06-22T14:00:56;9.23;;;5.05;;
13832;SDS011;6987;19.472;-99.276;2023-06-22T14:03:26;11.50;;;5.53;;
13832;SDS011;6987;19.472;-99.276;2023-06-22T14:05:54;5.03;;;4.55;;
13832;SDS011;6987;19.472;-99.276;2023-06-22T14:08:24;5.47;;;4.97;;
13832;SDS011;6987;19.472;-99.276;2023-06-22T14:10:53;7.22;;;4.93;;
13832;SDS011;6987;19.472;-99.276;2023-06-22T14:13:22;5.25;;;4.57;;
13832;SDS011;6987;19.472;-99.276;2023-06-22T14:15:53;4.90;;;4.50;;
13832;SDS011;6987;19.472;-99.276;2023-06-22T14:18:22;5.18;;;4.78;;
13832;SDS011;6987;19.472;-99.276;2023-06-22T14:20:51;4.47;;;4.10;;
13832;SDS011;6987;19.472;-99.276;2023-06-22T14:23:20;4.82;;;4.43;;
13832;SDS011;6987;19.472;-99.276;2023-06-22T14:25:49;6.25;;;4.38;;
13832;SDS011;6987;19.472;-99.276;2023-06-22T14:28:18;4.47;;;4.07;;
13832;SDS011;6987;19.472;-99.276;2023-06-22T14:30:47;5.20;;;4.68;;
13832;SDS011;6987;19.472;-99.276;2023-06-22T14:33:19;4.65;;;4.20;;
13832;SDS011;6987;19.472;-99.276;2023-06-22T14:35:48;6.05;;;4.55;;
13832;SDS011;6987;19.472;-99.276;2023-06-22T14:38:17;7.57;;;4.07;;
13832;SDS011;6987;19.472;-99.276;2023-06-22T14:40:47;4.57;;;4.25;;
13832;SDS011;6987;19.472;-99.276;2023-06-22T14:43:16;7.10;;;4.30;;
13832;SDS011;6987;19.472;-99.276;2023-06-22T14:45:45;4.35;;;4.03;;
13832;SDS011;6987;19.472;-99.276;2023-06-22T14:48:14;4.63;;;4.25;;
13832;SDS011;6987;19.472;-99.276;2023-06-22T14:50:45;4.13;;;3.83;;
13832;SDS011;6987;19.472;-99.276;2023-06-22T14:53:13;4.10;;;3.80;;